sensor_id;sensor_type;location;lat;lon;timestamp;pressure;altitude;pressure_sealevel;temperature
65316;BMP280;51920;53.952;10.292;2023-05-07T00:00:06;101771.72;;;9.40
65316;BMP280;51920;53.952;10.292;2023-05-07T00:02:36;101770.38;;;9.46
65316;BMP280;51920;53.952;10.292;2023-05-07T00:05:03;101763.59;;;9.52
65316;BMP280;51920;53.952;10.292;2023-05-07T00:07:30;101769.91;;;9.57
65316;BMP280;51920;53.952;10.292;2023-05-07T00:09:57;101775.00;;;9.46
65316;BMP280;51920;53.952;10.292;2023-05-07T00:12:23;101769.75;;;9.37
65316;BMP280;51920;53.952;10.292;2023-05-07T00:14:50;101769.59;;;9.46
65316;BMP280;51920;53.952;10.292;2023-05-07T00:17:17;101782.44;;;9.49
65316;BMP280;51920;53.952;10.292;2023-05-07T00:19:43;101783.47;;;9.44
65316;BMP280;51920;53.952;10.292;2023-05-07T00:22:10;101782.66;;;9.44
65316;BMP280;51920;53.952;10.292;2023-05-07T00:24:36;101778.50;;;9.46
65316;BMP280;51920;53.952;10.292;2023-05-07T00:27:03;101778.81;;;9.57
65316;BMP280;51920;53.952;10.292;2023-05-07T00:29:30;101774.06;;;9.54
65316;BMP280;51920;53.952;10.292;2023-05-07T00:31:56;101778.81;;;9.57
65316;BMP280;51920;53.952;10.292;2023-05-07T00:34:23;101771.50;;;9.45
65316;BMP280;51920;53.952;10.292;2023-05-07T00:36:49;101770.84;;;9.48
65316;BMP280;51920;53.952;10.292;2023-05-07T00:39:16;101769.81;;;9.53
65316;BMP280;51920;53.952;10.292;2023-05-07T00:41:42;101766.09;;;9.45
65316;BMP280;51920;53.952;10.292;2023-05-07T00:44:09;101768.91;;;9.49
65316;BMP280;51920;53.952;10.292;2023-05-07T00:46:35;101762.59;;;9.45
65316;BMP280;51920;53.952;10.292;2023-05-07T00:49:03;101773.75;;;9.43
65316;BMP280;51920;53.952;10.292;2023-05-07T00:51:30;101783.34;;;9.41
65316;BMP280;51920;53.952;10.292;2023-05-07T00:53:57;101769.81;;;9.53
65316;BMP280;51920;53.952;10.292;2023-05-07T00:56:23;101775.81;;;9.46
65316;BMP280;51920;53.952;10.292;2023-05-07T00:58:50;101779.03;;;9.52
65316;BMP280;51920;53.952;10.292;2023-05-07T01:01:16;101759.16;;;9.32
65316;BMP280;51920;53.952;10.292;2023-05-07T01:03:43;101777.66;;;9.58
65316;BMP280;51920;53.952;10.292;2023-05-07T01:06:10;101781.75;;;9.52
65316;BMP280;51920;53.952;10.292;2023-05-07T01:08:39;101766.06;;;9.58
65316;BMP280;51920;53.952;10.292;2023-05-07T01:11:07;101765.28;;;9.57
65316;BMP280;51920;53.952;10.292;2023-05-07T01:13:35;101776.91;;;9.45
65316;BMP280;51920;53.952;10.292;2023-05-07T01:16:03;101768.91;;;9.49
65316;BMP280;51920;53.952;10.292;2023-05-07T01:18:30;101762.13;;;9.55
65316;BMP280;51920;53.952;10.292;2023-05-07T01:20:58;101768.81;;;9.45
65316;BMP280;51920;53.952;10.292;2023-05-07T01:23:27;101770.97;;;9.40
65316;BMP280;51920;53.952;10.292;2023-05-07T01:25:54;101772.31;;;9.46
65316;BMP280;51920;53.952;10.292;2023-05-07T01:28:23;101767.69;;;9.46
65316;BMP280;51920;53.952;10.292;2023-05-07T01:30:54;101770.06;;;9.48
65316;BMP280;51920;53.952;10.292;2023-05-07T01:33:22;101758.34;;;9.31
65316;BMP280;51920;53.952;10.292;2023-05-07T01:35:51;101781.06;;;9.55
65316;BMP280;51920;53.952;10.292;2023-05-07T01:38:21;101767.09;;;9.53
65316;BMP280;51920;53.952;10.292;2023-05-07T01:40:48;101768.34;;;9.43
65316;BMP280;51920;53.952;10.292;2023-05-07T01:43:15;101777.44;;;9.51
65316;BMP280;51920;53.952;10.292;2023-05-07T01:45:42;101771.06;;;9.43
65316;BMP280;51920;53.952;10.292;2023-05-07T01:48:11;101776.56;;;9.47
65316;BMP280;51920;53.952;10.292;2023-05-07T01:50:39;101778.25;;;9.51
65316;BMP280;51920;53.952;10.292;2023-05-07T01:53:06;101781.09;;;9.43
65316;BMP280;51920;53.952;10.292;2023-05-07T01:55:32;101771.88;;;9.31
65316;BMP280;51920;53.952;10.292;2023-05-07T01:57:59;101771.66;;;9.37
65316;BMP280;51920;53.952;10.292;2023-05-07T02:00:26;101776.06;;;9.29
65316;BMP280;51920;53.952;10.292;2023-05-07T02:02:53;101782.53;;;9.40
65316;BMP280;51920;53.952;10.292;2023-05-07T02:05:31;101762.31;;;9.34
65316;BMP280;51920;53.952;10.292;2023-05-07T02:08:03;101774.78;;;9.39
65316;BMP280;51920;53.952;10.292;2023-05-07T02:10:30;101763.09;;;9.35
65316;BMP280;51920;53.952;10.292;2023-05-07T02:12:57;101788.06;;;9.44
65316;BMP280;51920;53.952;10.292;2023-05-07T02:15:24;101785.06;;;9.33
65316;BMP280;51920;53.952;10.292;2023-05-07T02:20:26;101782.25;;;9.29
65316;BMP280;51920;53.952;10.292;2023-05-07T02:22:52;101779.19;;;9.31
65316;BMP280;51920;53.952;10.292;2023-05-07T02:25:19;101781.81;;;9.27
65316;BMP280;51920;53.952;10.292;2023-05-07T02:27:46;101770.09;;;9.36
65316;BMP280;51920;53.952;10.292;2023-05-07T02:30:14;101785.59;;;9.39
65316;BMP280;51920;53.952;10.292;2023-05-07T02:32:40;101779.84;;;9.40
65316;BMP280;51920;53.952;10.292;2023-05-07T02:35:07;101785.59;;;9.39
65316;BMP280;51920;53.952;10.292;2023-05-07T02:37:34;101784.06;;;9.38
65316;BMP280;51920;53.952;10.292;2023-05-07T02:40:01;101780.91;;;9.36
65316;BMP280;51920;53.952;10.292;2023-05-07T02:42:30;101781.56;;;9.32
65316;BMP280;51920;53.952;10.292;2023-05-07T02:44:57;101793.28;;;9.37
65316;BMP280;51920;53.952;10.292;2023-05-07T02:47:24;101794.88;;;9.38
65316;BMP280;51920;53.952;10.292;2023-05-07T02:49:54;101797.78;;;9.32
65316;BMP280;51920;53.952;10.292;2023-05-07T02:52:21;101791.50;;;9.28
65316;BMP280;51920;53.952;10.292;2023-05-07T02:54:48;101806.16;;;9.27
65316;BMP280;51920;53.952;10.292;2023-05-07T02:57:15;101805.47;;;9.30
65316;BMP280;51920;53.952;10.292;2023-05-07T02:59:42;101805.94;;;9.20
65316;BMP280;51920;53.952;10.292;2023-05-07T03:02:09;101797.34;;;9.30
65316;BMP280;51920;53.952;10.292;2023-05-07T03:04:36;101814.72;;;9.29
65316;BMP280;51920;53.952;10.292;2023-05-07T03:07:03;101803.19;;;9.32
65316;BMP280;51920;53.952;10.292;2023-05-07T03:09:30;101811.34;;;9.20
65316;BMP280;51920;53.952;10.292;2023-05-07T03:11:57;101810.44;;;9.28
65316;BMP280;51920;53.952;10.292;2023-05-07T03:14:23;101814.06;;;9.20
65316;BMP280;51920;53.952;10.292;2023-05-07T03:16:50;101800.75;;;9.27
65316;BMP280;51920;53.952;10.292;2023-05-07T03:19:17;101808.59;;;9.32
65316;BMP280;51920;53.952;10.292;2023-05-07T03:21:43;101808.59;;;9.32
65316;BMP280;51920;53.952;10.292;2023-05-07T03:24:10;101805.00;;;9.41
65316;BMP280;51920;53.952;10.292;2023-05-07T03:26:37;101809.50;;;9.24
65316;BMP280;51920;53.952;10.292;2023-05-07T03:29:03;101797.47;;;9.34
65316;BMP280;51920;53.952;10.292;2023-05-07T03:31:30;101800.03;;;9.30
65316;BMP280;51920;53.952;10.292;2023-05-07T03:33:57;101805.78;;;9.41
65316;BMP280;51920;53.952;10.292;2023-05-07T03:36:25;101792.06;;;9.22
65316;BMP280;51920;53.952;10.292;2023-05-07T03:38:55;101807.41;;;9.30
65316;BMP280;51920;53.952;10.292;2023-05-07T03:41:24;101797.25;;;9.39
65316;BMP280;51920;53.952;10.292;2023-05-07T03:43:52;101792.19;;;9.25
65316;BMP280;51920;53.952;10.292;2023-05-07T03:46:19;101810.00;;;9.26
65316;BMP280;51920;53.952;10.292;2023-05-07T03:48:46;101793.06;;;9.29
65316;BMP280;51920;53.952;10.292;2023-05-07T03:51:13;101793.78;;;9.26
65316;BMP280;51920;53.952;10.292;2023-05-07T03:53:40;101800.31;;;9.13
65316;BMP280;51920;53.952;10.292;2023-05-07T03:56:07;101808.84;;;9.27
65316;BMP280;51920;53.952;10.292;2023-05-07T03:58:36;101811.78;;;9.22
65316;BMP280;51920;53.952;10.292;2023-05-07T04:01:08;101801.28;;;9.33
65316;BMP280;51920;53.952;10.292;2023-05-07T04:03:35;101797.25;;;9.39
65316;BMP280;51920;53.952;10.292;2023-05-07T04:06:03;101801.28;;;9.33
65316;BMP280;51920;53.952;10.292;2023-05-07T04:08:33;101811.78;;;9.22
65316;BMP280;51920;53.952;10.292;2023-05-07T04:11:00;101797.91;;;9.24
65316;BMP280;51920;53.952;10.292;2023-05-07T04:13:30;101809.44;;;9.21
65316;BMP280;51920;53.952;10.292;2023-05-07T04:15:58;101822.25;;;9.24
65316;BMP280;51920;53.952;10.292;2023-05-07T04:18:27;101826.78;;;9.20
65316;BMP280;51920;53.952;10.292;2023-05-07T04:20:53;101819.00;;;9.18
65316;BMP280;51920;53.952;10.292;2023-05-07T04:23:20;101831.63;;;9.26
65316;BMP280;51920;53.952;10.292;2023-05-07T04:25:47;101832.28;;;9.23
65316;BMP280;51920;53.952;10.292;2023-05-07T04:28:22;101826.41;;;9.34
65316;BMP280;51920;53.952;10.292;2023-05-07T04:30:49;101841.06;;;9.32
65316;BMP280;51920;53.952;10.292;2023-05-07T04:33:16;101827.78;;;9.27
65316;BMP280;51920;53.952;10.292;2023-05-07T04:35:44;101827.13;;;9.18
65316;BMP280;51920;53.952;10.292;2023-05-07T04:38:11;101827.44;;;9.29
65316;BMP280;51920;53.952;10.292;2023-05-07T04:40:38;101832.88;;;9.17
65316;BMP280;51920;53.952;10.292;2023-05-07T04:43:07;101841.75;;;9.29
65316;BMP280;51920;53.952;10.292;2023-05-07T04:45:42;101841.31;;;9.27
65316;BMP280;51920;53.952;10.292;2023-05-07T04:48:09;101830.69;;;9.22
65316;BMP280;51920;53.952;10.292;2023-05-07T04:50:38;101847.44;;;9.40
65316;BMP280;51920;53.952;10.292;2023-05-07T04:53:06;101852.97;;;9.44
65316;BMP280;51920;53.952;10.292;2023-05-07T04:55:33;101836.44;;;9.33
65316;BMP280;51920;53.952;10.292;2023-05-07T04:58:01;101811.22;;;9.17
65316;BMP280;51920;53.952;10.292;2023-05-07T05:00:31;101844.97;;;9.47
65316;BMP280;51920;53.952;10.292;2023-05-07T05:02:57;101849.94;;;9.45
65316;BMP280;51920;53.952;10.292;2023-05-07T05:05:24;101854.31;;;9.50
65316;BMP280;51920;53.952;10.292;2023-05-07T05:07:53;101858.38;;;9.44
65316;BMP280;51920;53.952;10.292;2023-05-07T05:10:21;101858.16;;;9.49
65316;BMP280;51920;53.952;10.292;2023-05-07T05:12:49;101861.28;;;9.51
65316;BMP280;51920;53.952;10.292;2023-05-07T05:15:16;101858.63;;;9.39
65316;BMP280;51920;53.952;10.292;2023-05-07T05:17:43;101827.44;;;9.29
65316;BMP280;51920;53.952;10.292;2023-05-07T05:20:09;101858.25;;;9.40
65316;BMP280;51920;53.952;10.292;2023-05-07T05:22:40;101862.22;;;9.43
65316;BMP280;51920;53.952;10.292;2023-05-07T05:25:07;101867.19;;;9.41
65316;BMP280;51920;53.952;10.292;2023-05-07T05:27:34;101873.50;;;9.45
65316;BMP280;51920;53.952;10.292;2023-05-07T05:30:01;101872.59;;;9.41
65316;BMP280;51920;53.952;10.292;2023-05-07T05:32:29;101858.16;;;9.49
65316;BMP280;51920;53.952;10.292;2023-05-07T05:34:56;101858.94;;;9.49
65316;BMP280;51920;53.952;10.292;2023-05-07T05:37:23;101851.72;;;9.53
65316;BMP280;51920;53.952;10.292;2023-05-07T05:39:52;101873.72;;;9.52
65316;BMP280;51920;53.952;10.292;2023-05-07T05:42:19;101869.41;;;9.63
65316;BMP280;51920;53.952;10.292;2023-05-07T05:44:46;101870.41;;;9.59
65316;BMP280;51920;53.952;10.292;2023-05-07T05:47:13;101873.69;;;9.64
65316;BMP280;51920;53.952;10.292;2023-05-07T05:49:40;101870.34;;;9.55
65316;BMP280;51920;53.952;10.292;2023-05-07T05:52:08;101876.53;;;9.56
65316;BMP280;51920;53.952;10.292;2023-05-07T05:54:36;101866.94;;;9.58
65316;BMP280;51920;53.952;10.292;2023-05-07T05:57:04;101886.31;;;9.60
65316;BMP280;51920;53.952;10.292;2023-05-07T05:59:31;101871.19;;;9.59
65316;BMP280;51920;53.952;10.292;2023-05-07T06:01:58;101874.47;;;9.65
65316;BMP280;51920;53.952;10.292;2023-05-07T06:04:25;101880.00;;;9.56
65316;BMP280;51920;53.952;10.292;2023-05-07T06:06:52;101874.28;;;9.58
65316;BMP280;51920;53.952;10.292;2023-05-07T06:09:19;101884.31;;;9.57
65316;BMP280;51920;53.952;10.292;2023-05-07T06:11:45;101885.38;;;9.68
65316;BMP280;51920;53.952;10.292;2023-05-07T06:14:12;101889.88;;;9.77
65316;BMP280;51920;53.952;10.292;2023-05-07T06:16:39;101873.34;;;9.66
65316;BMP280;51920;53.952;10.292;2023-05-07T06:19:07;101897.69;;;9.66
65316;BMP280;51920;53.952;10.292;2023-05-07T06:21:33;101891.97;;;9.67
65316;BMP280;51920;53.952;10.292;2023-05-07T06:24:01;101887.16;;;9.77
65316;BMP280;51920;53.952;10.292;2023-05-07T06:26:27;101861.06;;;9.56
65316;BMP280;51920;53.952;10.292;2023-05-07T06:28:54;101887.94;;;9.77
65316;BMP280;51920;53.952;10.292;2023-05-07T06:31:22;101889.41;;;9.87
65316;BMP280;51920;53.952;10.292;2023-05-07T06:33:53;101879.50;;;9.79
65316;BMP280;51920;53.952;10.292;2023-05-07T06:36:27;101887.47;;;9.87
65316;BMP280;51920;53.952;10.292;2023-05-07T06:38:57;101894.81;;;9.87
65316;BMP280;51920;53.952;10.292;2023-05-07T06:41:23;101886.91;;;9.94
65316;BMP280;51920;53.952;10.292;2023-05-07T06:43:50;101891.94;;;10.08
65316;BMP280;51920;53.952;10.292;2023-05-07T06:46:42;101889.38;;;9.99
65316;BMP280;51920;53.952;10.292;2023-05-07T06:49:10;101882.38;;;9.98
65316;BMP280;51920;53.952;10.292;2023-05-07T06:51:36;101868.38;;;9.96
65316;BMP280;51920;53.952;10.292;2023-05-07T06:54:03;101894.97;;;10.06
65316;BMP280;51920;53.952;10.292;2023-05-07T06:56:32;101897.66;;;10.19
65316;BMP280;51920;53.952;10.292;2023-05-07T06:59:02;101892.91;;;10.15
65316;BMP280;51920;53.952;10.292;2023-05-07T07:01:35;101899.38;;;10.27
65316;BMP280;51920;53.952;10.292;2023-05-07T07:04:03;101898.69;;;10.30
65316;BMP280;51920;53.952;10.292;2023-05-07T07:06:30;101894.31;;;10.25
65316;BMP280;51920;53.952;10.292;2023-05-07T07:08:59;101898.28;;;10.28
65316;BMP280;51920;53.952;10.292;2023-05-07T07:11:28;101898.78;;;10.33
65316;BMP280;51920;53.952;10.292;2023-05-07T07:13:55;101901.34;;;10.42
65316;BMP280;51920;53.952;10.292;2023-05-07T07:16:22;101895.56;;;10.28
65316;BMP280;51920;53.952;10.292;2023-05-07T07:18:50;101896.41;;;10.32
65316;BMP280;51920;53.952;10.292;2023-05-07T07:21:18;101895.50;;;10.40
65316;BMP280;51920;53.952;10.292;2023-05-07T07:23:45;101894.44;;;10.45
65316;BMP280;51920;53.952;10.292;2023-05-07T07:26:13;101895.59;;;10.60
65316;BMP280;51920;53.952;10.292;2023-05-07T07:28:45;101891.41;;;10.78
65316;BMP280;51920;53.952;10.292;2023-05-07T07:31:15;101893.22;;;10.90
65316;BMP280;51920;53.952;10.292;2023-05-07T07:33:43;101893.84;;;10.99
65316;BMP280;51920;53.952;10.292;2023-05-07T07:36:09;101897.34;;;10.84
65316;BMP280;51920;53.952;10.292;2023-05-07T07:38:36;101895.22;;;10.93
65316;BMP280;51920;53.952;10.292;2023-05-07T07:41:03;101878.81;;;10.86
65316;BMP280;51920;53.952;10.292;2023-05-07T07:43:30;101894.78;;;11.07
65316;BMP280;51920;53.952;10.292;2023-05-07T07:45:57;101885.34;;;11.16
65316;BMP280;51920;53.952;10.292;2023-05-07T07:48:26;101885.25;;;11.13
65316;BMP280;51920;53.952;10.292;2023-05-07T07:50:52;101901.66;;;11.20
65316;BMP280;51920;53.952;10.292;2023-05-07T07:53:19;101880.63;;;10.97
65316;BMP280;51920;53.952;10.292;2023-05-07T07:55:46;101908.59;;;11.17
65316;BMP280;51920;53.952;10.292;2023-05-07T07:58:16;101901.59;;;11.16
65316;BMP280;51920;53.952;10.292;2023-05-07T08:00:43;101897.38;;;11.35
65316;BMP280;51920;53.952;10.292;2023-05-07T08:03:10;101904.56;;;11.27
65316;BMP280;51920;53.952;10.292;2023-05-07T08:05:41;101898.69;;;11.25
65316;BMP280;51920;53.952;10.292;2023-05-07T08:08:08;101899.19;;;11.31
65316;BMP280;51920;53.952;10.292;2023-05-07T08:10:37;101898.38;;;11.27
65316;BMP280;51920;53.952;10.292;2023-05-07T08:13:12;101901.31;;;11.22
65316;BMP280;51920;53.952;10.292;2023-05-07T08:15:40;101882.97;;;11.15
65316;BMP280;51920;53.952;10.292;2023-05-07T08:18:07;101909.09;;;11.39
65316;BMP280;51920;53.952;10.292;2023-05-07T08:20:35;101893.28;;;11.25
65316;BMP280;51920;53.952;10.292;2023-05-07T08:23:08;101899.53;;;11.29
65316;BMP280;51920;53.952;10.292;2023-05-07T08:25:36;101906.00;;;11.40
65316;BMP280;51920;53.952;10.292;2023-05-07T08:28:04;101900.56;;;11.40
65316;BMP280;51920;53.952;10.292;2023-05-07T08:30:31;101910.84;;;11.51
65316;BMP280;51920;53.952;10.292;2023-05-07T08:32:57;101912.44;;;11.52
65316;BMP280;51920;53.952;10.292;2023-05-07T08:35:24;101903.66;;;11.58
65316;BMP280;51920;53.952;10.292;2023-05-07T08:37:52;101903.97;;;11.53
65316;BMP280;51920;53.952;10.292;2023-05-07T08:40:22;101920.88;;;11.66
65316;BMP280;51920;53.952;10.292;2023-05-07T08:42:53;101912.63;;;11.78
65316;BMP280;51920;53.952;10.292;2023-05-07T08:45:20;101919.88;;;11.94
65316;BMP280;51920;53.952;10.292;2023-05-07T08:47:51;101930.75;;;11.94
65316;BMP280;51920;53.952;10.292;2023-05-07T08:50:22;101919.47;;;11.92
65316;BMP280;51920;53.952;10.292;2023-05-07T08:52:50;101934.19;;;11.91
65316;BMP280;51920;53.952;10.292;2023-05-07T08:55:18;101920.03;;;11.81
65316;BMP280;51920;53.952;10.292;2023-05-07T08:57:46;101931.91;;;11.93
65316;BMP280;51920;53.952;10.292;2023-05-07T09:00:16;101927.94;;;11.90
65316;BMP280;51920;53.952;10.292;2023-05-07T09:02:45;101938.19;;;11.97
65316;BMP280;51920;53.952;10.292;2023-05-07T09:05:12;101936.91;;;12.10
65316;BMP280;51920;53.952;10.292;2023-05-07T09:07:39;101933.22;;;12.22
65316;BMP280;51920;53.952;10.292;2023-05-07T09:10:07;101937.06;;;12.63
65316;BMP280;51920;53.952;10.292;2023-05-07T09:12:36;101942.75;;;12.78
65316;BMP280;51920;53.952;10.292;2023-05-07T09:15:05;101929.69;;;13.14
65316;BMP280;51920;53.952;10.292;2023-05-07T09:17:33;101941.56;;;13.28
65316;BMP280;51920;53.952;10.292;2023-05-07T09:20:04;101932.38;;;13.40
65316;BMP280;51920;53.952;10.292;2023-05-07T09:22:37;101937.22;;;13.24
65316;BMP280;51920;53.952;10.292;2023-05-07T09:25:07;101940.88;;;13.08
65316;BMP280;51920;53.952;10.292;2023-05-07T09:27:37;101944.31;;;12.79
65316;BMP280;51920;53.952;10.292;2023-05-07T09:30:05;101931.56;;;12.83
65316;BMP280;51920;53.952;10.292;2023-05-07T09:32:36;101939.91;;;12.94
65316;BMP280;51920;53.952;10.292;2023-05-07T09:35:16;101946.16;;;12.98
65316;BMP280;51920;53.952;10.292;2023-05-07T09:37:46;101931.31;;;12.92
65316;BMP280;51920;53.952;10.292;2023-05-07T09:40:28;101951.47;;;13.14
65316;BMP280;51920;53.952;10.292;2023-05-07T09:43:08;101929.16;;;13.31
65316;BMP280;51920;53.952;10.292;2023-05-07T09:45:36;101948.69;;;13.67
65316;BMP280;51920;53.952;10.292;2023-05-07T09:48:05;101941.28;;;14.01
65316;BMP280;51920;53.952;10.292;2023-05-07T09:50:41;101928.94;;;14.14
65316;BMP280;51920;53.952;10.292;2023-05-07T09:53:11;101934.38;;;14.11
65316;BMP280;51920;53.952;10.292;2023-05-07T09:55:39;101936.34;;;13.77
65316;BMP280;51920;53.952;10.292;2023-05-07T09:58:06;101942.53;;;13.73
65316;BMP280;51920;53.952;10.292;2023-05-07T10:00:35;101938.88;;;13.92
65316;BMP280;51920;53.952;10.292;2023-05-07T10:03:09;101931.91;;;13.99
65316;BMP280;51920;53.952;10.292;2023-05-07T10:05:59;101942.91;;;14.06
65316;BMP280;51920;53.952;10.292;2023-05-07T10:08:27;101934.25;;;14.00
65316;BMP280;51920;53.952;10.292;2023-05-07T10:10:56;101940.72;;;14.22
65316;BMP280;51920;53.952;10.292;2023-05-07T10:13:25;101930.56;;;14.19
65316;BMP280;51920;53.952;10.292;2023-05-07T10:15:55;101945.94;;;14.42
65316;BMP280;51920;53.952;10.292;2023-05-07T10:18:25;101934.13;;;14.75
65316;BMP280;51920;53.952;10.292;2023-05-07T10:21:19;101936.97;;;14.89
65316;BMP280;51920;53.952;10.292;2023-05-07T10:23:50;101944.69;;;14.80
65316;BMP280;51920;53.952;10.292;2023-05-07T10:26:20;101946.75;;;14.94
65316;BMP280;51920;53.952;10.292;2023-05-07T10:28:50;101927.16;;;14.77
65316;BMP280;51920;53.952;10.292;2023-05-07T10:34:11;101942.00;;;14.83
65316;BMP280;51920;53.952;10.292;2023-05-07T10:36:39;101925.03;;;15.15
65316;BMP280;51920;53.952;10.292;2023-05-07T10:39:07;101934.97;;;15.52
65316;BMP280;51920;53.952;10.292;2023-05-07T10:41:34;101938.19;;;15.86
65316;BMP280;51920;53.952;10.292;2023-05-07T10:44:03;101930.00;;;15.94
65316;BMP280;51920;53.952;10.292;2023-05-07T10:46:32;101930.44;;;16.21
65316;BMP280;51920;53.952;10.292;2023-05-07T10:49:16;101924.56;;;16.47
65316;BMP280;51920;53.952;10.292;2023-05-07T10:52:25;101933.91;;;16.64
65316;BMP280;51920;53.952;10.292;2023-05-07T10:58:24;101936.25;;;16.66
65316;BMP280;51920;53.952;10.292;2023-05-07T11:01:53;101926.88;;;16.52
65316;BMP280;51920;53.952;10.292;2023-05-07T11:04:30;101926.50;;;16.36
65316;BMP280;51920;53.952;10.292;2023-05-07T11:07:34;101920.28;;;16.14
65316;BMP280;51920;53.952;10.292;2023-05-07T11:10:19;101919.09;;;16.26
65316;BMP280;51920;53.952;10.292;2023-05-07T11:12:54;101922.25;;;16.31
65316;BMP280;51920;53.952;10.292;2023-05-07T11:15:47;101907.38;;;16.14
65316;BMP280;51920;53.952;10.292;2023-05-07T11:18:52;101915.16;;;15.87
65316;BMP280;51920;53.952;10.292;2023-05-07T11:24:07;101905.78;;;16.17
65316;BMP280;51920;53.952;10.292;2023-05-07T11:26:48;101909.69;;;16.05
65316;BMP280;51920;53.952;10.292;2023-05-07T11:29:21;101912.06;;;16.03
65316;BMP280;51920;53.952;10.292;2023-05-07T11:31:53;101909.72;;;15.98
65316;BMP280;51920;53.952;10.292;2023-05-07T11:34:23;101921.81;;;16.08
65316;BMP280;51920;53.952;10.292;2023-05-07T11:36:52;101914.41;;;16.16
65316;BMP280;51920;53.952;10.292;2023-05-07T11:39:32;101915.97;;;16.20
65316;BMP280;51920;53.952;10.292;2023-05-07T11:42:02;101916.72;;;15.96
65316;BMP280;51920;53.952;10.292;2023-05-07T11:44:45;101916.72;;;15.92
65316;BMP280;51920;53.952;10.292;2023-05-07T11:47:17;101910.50;;;16.09
65316;BMP280;51920;53.952;10.292;2023-05-07T11:49:49;101908.16;;;16.44
65316;BMP280;51920;53.952;10.292;2023-05-07T11:52:17;101905.75;;;16.78
65316;BMP280;51920;53.952;10.292;2023-05-07T11:54:55;101911.63;;;16.66
65316;BMP280;51920;53.952;10.292;2023-05-07T11:57:24;101901.50;;;16.52
65316;BMP280;51920;53.952;10.292;2023-05-07T11:59:58;101904.22;;;16.48
65316;BMP280;51920;53.952;10.292;2023-05-07T12:02:25;101891.75;;;16.47
65316;BMP280;51920;53.952;10.292;2023-05-07T12:04:52;101902.28;;;16.31
65316;BMP280;51920;53.952;10.292;2023-05-07T12:07:19;101898.75;;;16.27
65316;BMP280;51920;53.952;10.292;2023-05-07T12:09:47;101910.88;;;16.29
65316;BMP280;51920;53.952;10.292;2023-05-07T12:12:14;101896.03;;;16.05
65316;BMP280;51920;53.952;10.292;2023-05-07T12:14:45;101883.91;;;16.06
65316;BMP280;51920;53.952;10.292;2023-05-07T12:17:14;101888.59;;;16.17
65316;BMP280;51920;53.952;10.292;2023-05-07T12:19:43;101912.06;;;16.14
65316;BMP280;51920;53.952;10.292;2023-05-07T12:22:10;101907.38;;;16.14
65316;BMP280;51920;53.952;10.292;2023-05-07T12:24:44;101908.13;;;16.19
65316;BMP280;51920;53.952;10.292;2023-05-07T12:27:11;101901.09;;;16.10
65316;BMP280;51920;53.952;10.292;2023-05-07T12:29:38;101906.59;;;16.28
65316;BMP280;51920;53.952;10.292;2023-05-07T12:32:06;101905.00;;;16.27
65316;BMP280;51920;53.952;10.292;2023-05-07T12:34:33;101885.47;;;16.22
65316;BMP280;51920;53.952;10.292;2023-05-07T12:37:02;101905.81;;;16.28
65316;BMP280;51920;53.952;10.292;2023-05-07T12:39:30;101911.28;;;16.39
65316;BMP280;51920;53.952;10.292;2023-05-07T12:41:58;101905.78;;;16.56
65316;BMP280;51920;53.952;10.292;2023-05-07T12:44:31;101905.75;;;16.71
65316;BMP280;51920;53.952;10.292;2023-05-07T12:47:01;101931.53;;;16.84
65316;BMP280;51920;53.952;10.292;2023-05-07T12:49:29;101918.25;;;16.79
65316;BMP280;51920;53.952;10.292;2023-05-07T12:51:56;101910.88;;;16.62
65316;BMP280;51920;53.952;10.292;2023-05-07T12:54:30;101932.75;;;16.62
65316;BMP280;51920;53.952;10.292;2023-05-07T12:57:07;101929.63;;;16.74
65316;BMP280;51920;53.952;10.292;2023-05-07T12:59:36;101927.25;;;16.79
65316;BMP280;51920;53.952;10.292;2023-05-07T13:02:03;101901.88;;;16.32
65316;BMP280;51920;53.952;10.292;2023-05-07T13:04:31;101908.94;;;16.30
65316;BMP280;51920;53.952;10.292;2023-05-07T13:06:58;101917.13;;;16.33
65316;BMP280;51920;53.952;10.292;2023-05-07T13:09:25;101912.81;;;16.22
65316;BMP280;51920;53.952;10.292;2023-05-07T13:11:52;101916.75;;;16.24
65316;BMP280;51920;53.952;10.292;2023-05-07T13:14:18;101924.97;;;16.35
65316;BMP280;51920;53.952;10.292;2023-05-07T13:16:47;101913.22;;;16.34
65316;BMP280;51920;53.952;10.292;2023-05-07T13:19:14;101914.41;;;16.37
65316;BMP280;51920;53.952;10.292;2023-05-07T13:21:41;101908.94;;;16.30
65316;BMP280;51920;53.952;10.292;2023-05-07T13:24:07;101906.59;;;16.35
65316;BMP280;51920;53.952;10.292;2023-05-07T13:26:34;101902.66;;;16.33
65316;BMP280;51920;53.952;10.292;2023-05-07T13:29:01;101913.59;;;16.33
65316;BMP280;51920;53.952;10.292;2023-05-07T13:31:28;101900.34;;;16.39
65316;BMP280;51920;53.952;10.292;2023-05-07T13:33:54;101904.63;;;16.36
65316;BMP280;51920;53.952;10.292;2023-05-07T13:36:22;101900.34;;;16.24
65316;BMP280;51920;53.952;10.292;2023-05-07T13:38:50;101919.88;;;16.41
65316;BMP280;51920;53.952;10.292;2023-05-07T13:41:17;101912.03;;;16.43
65316;BMP280;51920;53.952;10.292;2023-05-07T13:43:44;101904.63;;;16.47
65316;BMP280;51920;53.952;10.292;2023-05-07T13:46:10;101907.34;;;16.32
65316;BMP280;51920;53.952;10.292;2023-05-07T13:48:37;101911.28;;;16.42
65316;BMP280;51920;53.952;10.292;2023-05-07T13:51:04;101898.78;;;16.30
65316;BMP280;51920;53.952;10.292;2023-05-07T13:53:31;101908.94;;;16.48
65316;BMP280;51920;53.952;10.292;2023-05-07T13:55:57;101901.13;;;16.46
65316;BMP280;51920;53.952;10.292;2023-05-07T13:58:24;101886.25;;;16.33
65316;BMP280;51920;53.952;10.292;2023-05-07T14:00:51;101912.41;;;16.55
65316;BMP280;51920;53.952;10.292;2023-05-07T14:03:18;101895.66;;;16.46
65316;BMP280;51920;53.952;10.292;2023-05-07T14:05:45;101906.53;;;16.71
65316;BMP280;51920;53.952;10.292;2023-05-07T14:08:13;101919.44;;;16.74
65316;BMP280;51920;53.952;10.292;2023-05-07T14:10:45;101900.69;;;16.58
65316;BMP280;51920;53.952;10.292;2023-05-07T14:13:12;101893.28;;;16.63